Saturday, August 18, 2018, 1:57 PM GMT
Back to Local

CYQB, Quebec, Que

Location: , , Canada Lat: 46.8
Local Time: 1:57 PM GMT (13:57 GMT) Lon: -71.383
Time Zone: GMT Elev: 229 ft

Show me the last for .
Show Decoded

2018-08-18 13:00 METAR CYQB 181300Z 03005KT 350V050 30SM FEW017 SCT240 BKN260 18/15 A2990 RMK
                 SC1CS3CI3 SC MNLY S OF STLAWR SLP128 DENSITY ALT 800FT =
2018-08-18 12:00 METAR CYQB 181200Z 01005KT 30SM FEW017 FEW030 BKN240 BKN260 17/14 A2990 RMK
                 SC1SC1CS4CI2 SC TR SLP126 DENSITY ALT 600FT =
2018-08-18 11:00 METAR CYQB 181100Z 01004KT 30SM FEW017 FEW030 SCT240 BKN260 15/14 A2989 RMK
                 SC1SC1CS2CI4 SC TR SLP124 DENSITY ALT 400FT =
2018-08-18 10:00 METAR CYQB 181000Z 01006KT 30SM FEW015 SCT030 BKN240 15/14 A2987 RMK SF1SC4CI2
                 SF TR DIST SF SE SLP119 DENSITY ALT 400FT =
2018-08-18 09:00 METAR CYQB 180900Z 36005KT 15SM FEW020 FEW060 BKN120 15/14 A2986 RMK SC1SC1AC5
                 SLP114 DENSITY ALT 500FT =
2018-08-18 08:00 METAR CYQB 180800Z 01006KT 15SM FEW020 OVC120 16/14 A2985 RMK SC2AC6 SLP110
                 DENSITY ALT 500FT =
2018-08-18 07:00 METAR CYQB 180700Z 03008KT 15SM SCT020 OVC060 16/14 A2985 RMK SC3SC5 SLP111
                 DENSITY ALT 600FT =
2018-08-18 06:00 METAR CYQB 180600Z 02007KT 15SM SCT020 OVC060 16/14 A2985 RMK SC4SC4 SLP111
                 DENSITY ALT 500FT =
2018-08-18 05:00 METAR CYQB 180500Z 06016G26KT 15SM SCT012 BKN060 OVC110 16/14 A2986 RMK
                 SF3SC2AC3 SLP112 DENSITY ALT 500FT =
2018-08-18 04:50 METAR CYQB 180450Z 07019G25KT 15SM SCT012 BKN060 OVC110 16/14 A2986 RMK
                 SF3SC2AC3 SLP113 DENSITY ALT 500FT =
2018-08-18 04:19 METAR CYQB 180419Z 07013KT 6SM -RA BR SCT012 OVC060 17/16 A2987 RMK SF4SC4
                 SLP116 DENSITY ALT 600FT =
2018-08-18 04:00 METAR CYQB 180400Z 05017KT 020V080 6SM -RA BR BKN009 OVC020 17/16 A2986 RMK
                 SF5SC3 SLP114 DENSITY ALT 600FT =
2018-08-18 03:00 METAR CYQB 180300Z 02005KT 3SM -RA BR BKN006 OVC020 17/17 A2988 RMK SF5SC3
                 PRESRR SLP119 DENSITY ALT 700FT =
2018-08-18 02:44 METAR CYQB 180244Z 04008KT 3SM -RA BR SCT006 OVC020 17/17 A2986 RMK SF4SC4
                 SLP115 DENSITY ALT 700FT =
2018-08-18 02:27 METAR CYQB 180227Z 05010KT 1 1/4SM R06/4000VP6000FT/D -RA BR BKN004 VV012 17/17
                 A2987 RMK SF5RA3 SLP118 DENSITY ALT 700FT =
2018-08-18 02:00 METAR CYQB 180200Z 03006KT 3SM -RA BR BKN004 VV012 17/17 A2988 RMK SF5RA3 SLP121
                 DENSITY ALT 700FT =
2018-08-18 01:53 METAR CYQB 180153Z 03007KT 3SM R06/4000VP6000FT/U -RA BR BKN004 VV012 17/17
                 A2988 RMK SF5RA3 SLP120 DENSITY ALT 700FT =
2018-08-18 01:41 METAR CYQB 180141Z 02009KT 350V050 1SM R06/2800FT/N RA BR VV003 17/17 A2988 RMK
                 RA8 SLP120 DENSITY ALT 700FT =
2018-08-18 01:34 METAR CYQB 180134Z 02006G16KT 1 3/4SM RA BR OVC003 17/17 A2988 RMK ST8 PRESRR
                 SLP122 DENSITY ALT 700FT =
2018-08-18 01:00 METAR CYQB 180100Z 05011G17KT 4SM -RA BR BKN004 OVC022 18/17 A2987 RMK ST6SC2
                 SLP116 DENSITY ALT 700FT =
2018-08-18 00:25 METAR CYQB 180025Z 08007KT 5SM -RA BR BKN005 OVC030 18/17 A2987 RMK SF5SC3
                 SLP119 DENSITY ALT 700FT =
2018-08-18 00:00 METAR CYQB 180000Z 05009KT 5SM -RA BR FEW004 BKN030 OVC054 17/17 A2987 RMK
                 SF2SC5SC1 SLP119 DENSITY ALT 700FT =
2018-08-17 23:51 METAR CYQB 172351Z 05008KT 4SM -RA BR FEW005 OVC030 17/17 A2988 RMK SF2SC6
                 SLP120 DENSITY ALT 700FT =
2018-08-17 23:25 METAR CYQB 172325Z 06007KT 3SM -RA BR FEW007 OVC031 17/17 A2989 RMK SF1SC7
                 SLP123 DENSITY ALT 700FT =
2018-08-17 23:13 METAR CYQB 172313Z 04004KT 3SM -RA BR FEW009 BKN028 OVC052 17/17 A2989 RMK
                 ST1SC5SC3 ST TR SLP125 DENSITY ALT 600FT =
2018-08-17 23:00 METAR CYQB 172300Z 04006KT 2 1/2SM -RA BR FEW009 BKN029 OVC054 17/17 A2989 RMK
                 ST1SC5SC3 ST TR SLP125 DENSITY ALT 700FT =
2018-08-17 22:43 METAR CYQB 172243Z 04006KT 5SM -RA BR FEW008 BKN034 OVC054 18/17 A2990 RMK
                 ST1SC6SC2 ST TR SLP126 DENSITY ALT 700FT =
2018-08-17 22:00 METAR CYQB 172200Z 02006KT 3SM -RA BR SCT023 OVC054 18/17 A2992 RMK SC3SC5
                 SLP133 DENSITY ALT 600FT =
2018-08-17 21:16 METAR CYQB 172116Z 34003KT 320V040 6SM -RA BR OVC054 19/17 A2993 RMK SC8 SLP139
                 DENSITY ALT 700FT =
2018-08-17 21:00 METAR CYQB 172100Z 36004KT 330V030 15SM -RA BKN053 OVC080 19/16 A2993 RMK SC6AC2
                 SLP137 DENSITY ALT 800FT =
2018-08-17 20:16 METAR CYQB 172016Z 02005KT 30SM -RA OVC063 20/15 A2993 RMK SC8 SLP138 DENSITY
                 ALT 1000FT =
2018-08-17 20:00 METAR CYQB 172000Z 01005KT 30SM VCSH BKN057 BKN075 21/15 A2994 RMK SC5AC2 SLP141
                 DENSITY ALT 1000FT =
2018-08-17 19:33 METAR CYQB 171933Z 36004KT 30SM VCSH BKN064 BKN076 21/16 A2995 RMK SC5AC2 SLP144
                 DENSITY ALT 1100FT =
2018-08-17 19:14 METAR CYQB 171914Z 35003KT 330V060 30SM -SHRA FEW037 BKN053 BKN075 22/15 A2995
                 RMK SC1SC4AC2 CVCTV CLDS EMBD SLP146 DENSITY ALT 1200FT =
2018-08-17 19:00 METAR CYQB 171900Z 00000KT 30SM VCSH FEW060 BKN075 BKN100 23/15 A2996 RMK
                 SC1AC5AC1 SLP149 DENSITY ALT 1200FT =
2018-08-17 18:00 METAR CYQB 171800Z 28003KT 210V340 30SM BKN054 BKN100 24/13 A2999 RMK SC5AC2
                 DIST SH W CVCTV CLDS EMBD SLP157 DENSITY ALT 1300FT =
2018-08-17 17:00 METAR CYQB 171700Z 20005KT 150V250 30SM FEW040 BKN060 OVC240 24/13 A3001 RMK
                 CU1SC7CI1 CU TR SLP164 DENSITY ALT 1200FT =
2018-08-17 16:00 METAR CYQB 171600Z CCA 00000KT 30SM FEW042 SCT060 OVC240 22/12 A3003 RMK
                 CU1SC4CI4 CU TR SLP170 DENSITY ALT 1100FT =
2018-08-17 15:00 METAR CYQB 171500Z 07007KT 040V130 30SM FEW030 FEW100 OVC240 21/13 A3004 RMK
                 CU1AC1CI7 CU TR SLP175 DENSITY ALT 900FT =
2018-08-17 14:00 METAR CYQB 171400Z VRB02KT 30SM FEW100 OVC240 19/13 A3008 RMK AC1CI7 SLP189
                 DENSITY ALT 600FT =

Support USWX by starting your Amazon purchase here.